sensor_id;sensor_type;location;lat;lon;timestamp;P1;durP1;ratioP1;P2;durP2;ratioP2
3677;SDS011;1855;50.934;6.958;2023-04-24T00:01:23;1.60;;;0.80;;
3677;SDS011;1855;50.934;6.958;2023-04-24T00:03:50;1.10;;;0.80;;
3677;SDS011;1855;50.934;6.958;2023-04-24T00:06:17;1.40;;;1.00;;
3677;SDS011;1855;50.934;6.958;2023-04-24T00:08:43;1.40;;;0.85;;
3677;SDS011;1855;50.934;6.958;2023-04-24T00:11:11;2.00;;;1.10;;
3677;SDS011;1855;50.934;6.958;2023-04-24T00:13:38;1.20;;;0.90;;
3677;SDS011;1855;50.934;6.958;2023-04-24T00:16:05;1.10;;;0.95;;
3677;SDS011;1855;50.934;6.958;2023-04-24T00:18:32;1.30;;;0.93;;
3677;SDS011;1855;50.934;6.958;2023-04-24T00:20:59;1.00;;;0.90;;
3677;SDS011;1855;50.934;6.958;2023-04-24T00:23:26;1.20;;;0.80;;
3677;SDS011;1855;50.934;6.958;2023-04-24T00:25:52;1.20;;;1.00;;
3677;SDS011;1855;50.934;6.958;2023-04-24T00:28:20;1.50;;;1.10;;
3677;SDS011;1855;50.934;6.958;2023-04-24T00:30:47;1.70;;;1.00;;
3677;SDS011;1855;50.934;6.958;2023-04-24T00:33:14;1.17;;;1.07;;
3677;SDS011;1855;50.934;6.958;2023-04-24T00:35:40;1.40;;;1.20;;
3677;SDS011;1855;50.934;6.958;2023-04-24T00:38:07;1.60;;;1.00;;
3677;SDS011;1855;50.934;6.958;2023-04-24T00:40:34;2.33;;;1.10;;
3677;SDS011;1855;50.934;6.958;2023-04-24T00:43:01;1.30;;;1.20;;
3677;SDS011;1855;50.934;6.958;2023-04-24T00:45:29;1.30;;;1.20;;
3677;SDS011;1855;50.934;6.958;2023-04-24T00:47:57;1.30;;;1.10;;
3677;SDS011;1855;50.934;6.958;2023-04-24T00:50:24;2.10;;;1.23;;
3677;SDS011;1855;50.934;6.958;2023-04-24T00:52:51;1.67;;;1.00;;
3677;SDS011;1855;50.934;6.958;2023-04-24T00:55:18;2.20;;;1.13;;
3677;SDS011;1855;50.934;6.958;2023-04-24T00:57:45;2.00;;;1.30;;
3677;SDS011;1855;50.934;6.958;2023-04-24T01:00:13;1.40;;;1.10;;
3677;SDS011;1855;50.934;6.958;2023-04-24T01:02:43;1.20;;;1.10;;
3677;SDS011;1855;50.934;6.958;2023-04-24T01:05:11;2.30;;;1.27;;
3677;SDS011;1855;50.934;6.958;2023-04-24T01:07:38;1.40;;;1.27;;
3677;SDS011;1855;50.934;6.958;2023-04-24T01:10:09;1.90;;;1.20;;
3677;SDS011;1855;50.934;6.958;2023-04-24T01:12:36;1.20;;;1.10;;
3677;SDS011;1855;50.934;6.958;2023-04-24T01:15:03;1.20;;;1.10;;
3677;SDS011;1855;50.934;6.958;2023-04-24T01:17:31;1.43;;;1.10;;
3677;SDS011;1855;50.934;6.958;2023-04-24T01:19:59;1.40;;;1.30;;
3677;SDS011;1855;50.934;6.958;2023-04-24T01:22:32;1.90;;;1.40;;
3677;SDS011;1855;50.934;6.958;2023-04-24T01:24:59;1.50;;;1.30;;
3677;SDS011;1855;50.934;6.958;2023-04-24T01:27:26;3.10;;;1.50;;
3677;SDS011;1855;50.934;6.958;2023-04-24T01:29:52;1.90;;;1.60;;
3677;SDS011;1855;50.934;6.958;2023-04-24T01:32:19;1.50;;;1.40;;
3677;SDS011;1855;50.934;6.958;2023-04-24T01:34:46;1.40;;;1.30;;
3677;SDS011;1855;50.934;6.958;2023-04-24T01:37:14;2.15;;;1.65;;
3677;SDS011;1855;50.934;6.958;2023-04-24T01:39:43;2.00;;;1.40;;
3677;SDS011;1855;50.934;6.958;2023-04-24T01:42:09;2.58;;;2.30;;
3677;SDS011;1855;50.934;6.958;2023-04-24T01:44:38;3.03;;;2.70;;
3677;SDS011;1855;50.934;6.958;2023-04-24T01:47:04;3.10;;;2.80;;
3677;SDS011;1855;50.934;6.958;2023-04-24T01:49:32;3.47;;;3.17;;
3677;SDS011;1855;50.934;6.958;2023-04-24T01:51:59;4.97;;;3.45;;
3677;SDS011;1855;50.934;6.958;2023-04-24T01:54:26;3.70;;;3.40;;
3677;SDS011;1855;50.934;6.958;2023-04-24T01:56:54;4.32;;;3.92;;
3677;SDS011;1855;50.934;6.958;2023-04-24T01:59:21;4.10;;;3.70;;
3677;SDS011;1855;50.934;6.958;2023-04-24T02:01:51;4.40;;;4.10;;
3677;SDS011;1855;50.934;6.958;2023-04-24T02:04:17;3.97;;;3.60;;
3677;SDS011;1855;50.934;6.958;2023-04-24T02:06:44;4.70;;;4.30;;
3677;SDS011;1855;50.934;6.958;2023-04-24T02:09:11;4.82;;;4.43;;
3677;SDS011;1855;50.934;6.958;2023-04-24T02:11:38;5.57;;;4.80;;
3677;SDS011;1855;50.934;6.958;2023-04-24T02:14:06;4.90;;;4.45;;
3677;SDS011;1855;50.934;6.958;2023-04-24T02:16:33;4.82;;;4.32;;
3677;SDS011;1855;50.934;6.958;2023-04-24T02:19:00;5.30;;;4.90;;
3677;SDS011;1855;50.934;6.958;2023-04-24T02:21:27;4.93;;;4.53;;
3677;SDS011;1855;50.934;6.958;2023-04-24T02:23:55;5.00;;;4.60;;
3677;SDS011;1855;50.934;6.958;2023-04-24T02:26:22;5.95;;;5.35;;
3677;SDS011;1855;50.934;6.958;2023-04-24T02:28:49;5.80;;;5.30;;
3677;SDS011;1855;50.934;6.958;2023-04-24T02:31:18;6.20;;;4.90;;
3677;SDS011;1855;50.934;6.958;2023-04-24T02:33:44;5.70;;;5.10;;
3677;SDS011;1855;50.934;6.958;2023-04-24T02:36:11;5.38;;;4.88;;
3677;SDS011;1855;50.934;6.958;2023-04-24T02:38:39;5.60;;;5.10;;
3677;SDS011;1855;50.934;6.958;2023-04-24T02:41:06;5.00;;;4.60;;
3677;SDS011;1855;50.934;6.958;2023-04-24T02:43:32;5.20;;;4.80;;
3677;SDS011;1855;50.934;6.958;2023-04-24T02:45:59;5.30;;;4.90;;
3677;SDS011;1855;50.934;6.958;2023-04-24T02:48:27;6.10;;;5.60;;
3677;SDS011;1855;50.934;6.958;2023-04-24T02:50:54;6.07;;;5.47;;
3677;SDS011;1855;50.934;6.958;2023-04-24T02:53:22;5.90;;;5.35;;
3677;SDS011;1855;50.934;6.958;2023-04-24T02:55:49;6.03;;;5.53;;
3677;SDS011;1855;50.934;6.958;2023-04-24T02:58:16;6.30;;;5.80;;
3677;SDS011;1855;50.934;6.958;2023-04-24T03:00:44;6.07;;;5.57;;
3677;SDS011;1855;50.934;6.958;2023-04-24T03:03:11;6.40;;;5.80;;
3677;SDS011;1855;50.934;6.958;2023-04-24T03:05:39;7.25;;;6.40;;
3677;SDS011;1855;50.934;6.958;2023-04-24T03:08:06;7.35;;;6.55;;
3677;SDS011;1855;50.934;6.958;2023-04-24T03:10:33;7.17;;;6.57;;
3677;SDS011;1855;50.934;6.958;2023-04-24T03:13:00;7.23;;;6.63;;
3677;SDS011;1855;50.934;6.958;2023-04-24T03:15:26;7.75;;;7.05;;
3677;SDS011;1855;50.934;6.958;2023-04-24T03:17:53;7.78;;;7.03;;
3677;SDS011;1855;50.934;6.958;2023-04-24T03:20:20;6.80;;;6.20;;
3677;SDS011;1855;50.934;6.958;2023-04-24T03:22:48;6.88;;;6.20;;
3677;SDS011;1855;50.934;6.958;2023-04-24T03:25:15;7.00;;;6.40;;
3677;SDS011;1855;50.934;6.958;2023-04-24T03:27:42;6.80;;;6.20;;
3677;SDS011;1855;50.934;6.958;2023-04-24T03:30:08;7.13;;;6.43;;
3677;SDS011;1855;50.934;6.958;2023-04-24T03:32:36;7.10;;;6.50;;
3677;SDS011;1855;50.934;6.958;2023-04-24T03:35:04;7.35;;;6.75;;
3677;SDS011;1855;50.934;6.958;2023-04-24T03:37:32;7.97;;;7.18;;
3677;SDS011;1855;50.934;6.958;2023-04-24T03:40:00;7.63;;;6.90;;
3677;SDS011;1855;50.934;6.958;2023-04-24T03:42:27;7.65;;;6.85;;
3677;SDS011;1855;50.934;6.958;2023-04-24T03:44:53;7.30;;;6.60;;
3677;SDS011;1855;50.934;6.958;2023-04-24T03:47:20;7.63;;;6.93;;
3677;SDS011;1855;50.934;6.958;2023-04-24T03:49:47;7.30;;;6.60;;
3677;SDS011;1855;50.934;6.958;2023-04-24T03:52:13;7.65;;;7.05;;
3677;SDS011;1855;50.934;6.958;2023-04-24T03:54:40;7.70;;;7.00;;
3677;SDS011;1855;50.934;6.958;2023-04-24T03:57:08;7.40;;;6.80;;
3677;SDS011;1855;50.934;6.958;2023-04-24T03:59:35;7.93;;;7.22;;
3677;SDS011;1855;50.934;6.958;2023-04-24T04:02:02;7.85;;;7.15;;
3677;SDS011;1855;50.934;6.958;2023-04-24T04:04:28;7.88;;;7.18;;
3677;SDS011;1855;50.934;6.958;2023-04-24T04:06:55;7.33;;;6.73;;
3677;SDS011;1855;50.934;6.958;2023-04-24T04:09:25;7.40;;;6.70;;
3677;SDS011;1855;50.934;6.958;2023-04-24T04:11:52;7.43;;;6.72;;
3677;SDS011;1855;50.934;6.958;2023-04-24T04:14:20;7.50;;;6.80;;
3677;SDS011;1855;50.934;6.958;2023-04-24T04:16:46;7.70;;;7.00;;
3677;SDS011;1855;50.934;6.958;2023-04-24T04:19:13;7.00;;;6.40;;
3677;SDS011;1855;50.934;6.958;2023-04-24T04:21:40;7.38;;;6.68;;
3677;SDS011;1855;50.934;6.958;2023-04-24T04:24:06;7.00;;;6.40;;
3677;SDS011;1855;50.934;6.958;2023-04-24T04:26:34;6.45;;;5.95;;
3677;SDS011;1855;50.934;6.958;2023-04-24T04:29:02;6.60;;;6.10;;
3677;SDS011;1855;50.934;6.958;2023-04-24T04:31:31;6.60;;;6.00;;
3677;SDS011;1855;50.934;6.958;2023-04-24T04:33:57;7.05;;;6.45;;
3677;SDS011;1855;50.934;6.958;2023-04-24T04:36:24;6.88;;;6.22;;
3677;SDS011;1855;50.934;6.958;2023-04-24T04:38:51;7.00;;;6.40;;
3677;SDS011;1855;50.934;6.958;2023-04-24T04:41:19;6.55;;;6.00;;
3677;SDS011;1855;50.934;6.958;2023-04-24T04:43:46;6.60;;;6.10;;
3677;SDS011;1855;50.934;6.958;2023-04-24T04:46:13;6.90;;;6.30;;
3677;SDS011;1855;50.934;6.958;2023-04-24T04:48:41;6.65;;;5.95;;
3677;SDS011;1855;50.934;6.958;2023-04-24T04:51:08;6.20;;;5.70;;
3677;SDS011;1855;50.934;6.958;2023-04-24T04:53:34;6.10;;;5.60;;
3677;SDS011;1855;50.934;6.958;2023-04-24T04:56:01;6.13;;;5.57;;
3677;SDS011;1855;50.934;6.958;2023-04-24T04:58:28;5.63;;;5.20;;
3677;SDS011;1855;50.934;6.958;2023-04-24T05:00:55;6.05;;;5.55;;
3677;SDS011;1855;50.934;6.958;2023-04-24T05:03:22;6.00;;;5.50;;
3677;SDS011;1855;50.934;6.958;2023-04-24T05:05:50;5.93;;;5.53;;
3677;SDS011;1855;50.934;6.958;2023-04-24T05:08:17;5.70;;;5.30;;
3677;SDS011;1855;50.934;6.958;2023-04-24T05:10:43;5.80;;;5.30;;
3677;SDS011;1855;50.934;6.958;2023-04-24T05:13:10;5.43;;;4.93;;
3677;SDS011;1855;50.934;6.958;2023-04-24T05:15:37;6.35;;;5.75;;
3677;SDS011;1855;50.934;6.958;2023-04-24T05:18:04;6.10;;;5.50;;
3677;SDS011;1855;50.934;6.958;2023-04-24T05:20:30;5.82;;;5.32;;
3677;SDS011;1855;50.934;6.958;2023-04-24T05:22:59;5.80;;;5.30;;
3677;SDS011;1855;50.934;6.958;2023-04-24T05:25:25;6.55;;;5.85;;
3677;SDS011;1855;50.934;6.958;2023-04-24T05:27:52;5.93;;;5.43;;
3677;SDS011;1855;50.934;6.958;2023-04-24T05:30:19;6.50;;;6.00;;
3677;SDS011;1855;50.934;6.958;2023-04-24T05:32:46;6.07;;;5.50;;
3677;SDS011;1855;50.934;6.958;2023-04-24T05:35:13;6.80;;;6.20;;
3677;SDS011;1855;50.934;6.958;2023-04-24T05:37:40;6.70;;;6.10;;
3677;SDS011;1855;50.934;6.958;2023-04-24T05:40:08;6.60;;;6.10;;
3677;SDS011;1855;50.934;6.958;2023-04-24T05:42:36;6.18;;;5.68;;
3677;SDS011;1855;50.934;6.958;2023-04-24T05:45:03;5.53;;;5.03;;
3677;SDS011;1855;50.934;6.958;2023-04-24T05:47:30;6.22;;;5.72;;
3677;SDS011;1855;50.934;6.958;2023-04-24T05:49:57;6.25;;;5.75;;
3677;SDS011;1855;50.934;6.958;2023-04-24T05:52:24;6.70;;;6.10;;
3677;SDS011;1855;50.934;6.958;2023-04-24T05:54:51;6.70;;;6.10;;
3677;SDS011;1855;50.934;6.958;2023-04-24T05:57:19;6.60;;;6.00;;
3677;SDS011;1855;50.934;6.958;2023-04-24T05:59:46;7.00;;;6.28;;
3677;SDS011;1855;50.934;6.958;2023-04-24T06:02:13;6.65;;;6.03;;
3677;SDS011;1855;50.934;6.958;2023-04-24T06:04:40;6.30;;;5.70;;
3677;SDS011;1855;50.934;6.958;2023-04-24T06:07:07;7.03;;;6.43;;
3677;SDS011;1855;50.934;6.958;2023-04-24T06:09:34;6.85;;;6.30;;
3677;SDS011;1855;50.934;6.958;2023-04-24T06:12:01;6.32;;;5.80;;
3677;SDS011;1855;50.934;6.958;2023-04-24T06:14:29;6.95;;;6.35;;
3677;SDS011;1855;50.934;6.958;2023-04-24T06:16:56;7.07;;;6.47;;
3677;SDS011;1855;50.934;6.958;2023-04-24T06:19:23;7.53;;;6.83;;
3677;SDS011;1855;50.934;6.958;2023-04-24T06:21:50;7.75;;;7.05;;
3677;SDS011;1855;50.934;6.958;2023-04-24T06:24:17;14.95;;;8.00;;
3677;SDS011;1855;50.934;6.958;2023-04-24T06:26:43;7.07;;;6.45;;
3677;SDS011;1855;50.934;6.958;2023-04-24T06:29:10;8.00;;;6.53;;
3677;SDS011;1855;50.934;6.958;2023-04-24T06:31:38;5.32;;;4.82;;
3677;SDS011;1855;50.934;6.958;2023-04-24T06:34:05;4.53;;;4.13;;
3677;SDS011;1855;50.934;6.958;2023-04-24T06:36:32;6.60;;;5.05;;
3677;SDS011;1855;50.934;6.958;2023-04-24T06:38:59;6.20;;;4.20;;
3677;SDS011;1855;50.934;6.958;2023-04-24T06:41:26;5.00;;;4.05;;
3677;SDS011;1855;50.934;6.958;2023-04-24T06:43:54;5.30;;;3.93;;
3677;SDS011;1855;50.934;6.958;2023-04-24T06:46:21;5.13;;;4.13;;
3677;SDS011;1855;50.934;6.958;2023-04-24T06:48:52;4.88;;;4.47;;
3677;SDS011;1855;50.934;6.958;2023-04-24T06:51:20;6.05;;;4.60;;
3677;SDS011;1855;50.934;6.958;2023-04-24T06:53:48;5.15;;;4.10;;
3677;SDS011;1855;50.934;6.958;2023-04-24T06:56:15;4.47;;;3.80;;
3677;SDS011;1855;50.934;6.958;2023-04-24T06:58:41;4.72;;;3.60;;
3677;SDS011;1855;50.934;6.958;2023-04-24T07:01:09;5.00;;;3.60;;
3677;SDS011;1855;50.934;6.958;2023-04-24T07:03:36;3.80;;;3.50;;
3677;SDS011;1855;50.934;6.958;2023-04-24T07:06:04;3.53;;;3.22;;
3677;SDS011;1855;50.934;6.958;2023-04-24T07:08:31;3.90;;;3.50;;
3677;SDS011;1855;50.934;6.958;2023-04-24T07:10:58;4.22;;;3.92;;
3677;SDS011;1855;50.934;6.958;2023-04-24T07:13:26;4.20;;;3.83;;
3677;SDS011;1855;50.934;6.958;2023-04-24T07:15:53;4.15;;;3.85;;
3677;SDS011;1855;50.934;6.958;2023-04-24T07:18:21;3.88;;;3.30;;
3677;SDS011;1855;50.934;6.958;2023-04-24T07:20:48;4.10;;;3.80;;
3677;SDS011;1855;50.934;6.958;2023-04-24T07:23:16;4.47;;;4.07;;
3677;SDS011;1855;50.934;6.958;2023-04-24T07:25:43;4.40;;;4.00;;
3677;SDS011;1855;50.934;6.958;2023-04-24T07:28:10;4.13;;;3.53;;
3677;SDS011;1855;50.934;6.958;2023-04-24T07:30:36;3.97;;;3.58;;
3677;SDS011;1855;50.934;6.958;2023-04-24T07:33:03;4.07;;;3.50;;
3677;SDS011;1855;50.934;6.958;2023-04-24T07:35:31;3.90;;;3.60;;
3677;SDS011;1855;50.934;6.958;2023-04-24T07:37:59;3.80;;;3.50;;
3677;SDS011;1855;50.934;6.958;2023-04-24T07:40:27;3.13;;;2.83;;
3677;SDS011;1855;50.934;6.958;2023-04-24T07:42:54;2.60;;;2.40;;
3677;SDS011;1855;50.934;6.958;2023-04-24T07:45:21;2.20;;;2.00;;
3677;SDS011;1855;50.934;6.958;2023-04-24T07:47:51;2.20;;;2.00;;
3677;SDS011;1855;50.934;6.958;2023-04-24T07:50:17;2.63;;;1.90;;
3677;SDS011;1855;50.934;6.958;2023-04-24T07:52:44;3.30;;;2.00;;
3677;SDS011;1855;50.934;6.958;2023-04-24T07:55:11;3.20;;;2.47;;
3677;SDS011;1855;50.934;6.958;2023-04-24T07:57:39;4.10;;;2.30;;
3677;SDS011;1855;50.934;6.958;2023-04-24T08:00:06;3.70;;;1.90;;
3677;SDS011;1855;50.934;6.958;2023-04-24T08:02:34;2.20;;;1.90;;
3677;SDS011;1855;50.934;6.958;2023-04-24T08:05:01;3.65;;;2.20;;
3677;SDS011;1855;50.934;6.958;2023-04-24T08:07:28;2.20;;;1.90;;
3677;SDS011;1855;50.934;6.958;2023-04-24T08:09:55;2.90;;;2.17;;
3677;SDS011;1855;50.934;6.958;2023-04-24T08:12:22;3.20;;;2.17;;
3677;SDS011;1855;50.934;6.958;2023-04-24T08:14:50;4.63;;;2.55;;
3677;SDS011;1855;50.934;6.958;2023-04-24T08:17:17;2.80;;;2.40;;
3677;SDS011;1855;50.934;6.958;2023-04-24T08:19:43;2.30;;;1.80;;
3677;SDS011;1855;50.934;6.958;2023-04-24T08:22:13;2.80;;;2.17;;
3677;SDS011;1855;50.934;6.958;2023-04-24T08:24:40;2.80;;;2.20;;
3677;SDS011;1855;50.934;6.958;2023-04-24T08:27:07;3.10;;;2.10;;
3677;SDS011;1855;50.934;6.958;2023-04-24T08:29:34;3.60;;;2.10;;
3677;SDS011;1855;50.934;6.958;2023-04-24T08:32:02;4.53;;;2.30;;
3677;SDS011;1855;50.934;6.958;2023-04-24T08:34:29;4.72;;;2.47;;
3677;SDS011;1855;50.934;6.958;2023-04-24T08:36:56;2.50;;;2.10;;
3677;SDS011;1855;50.934;6.958;2023-04-24T08:39:23;3.10;;;1.60;;
3677;SDS011;1855;50.934;6.958;2023-04-24T08:41:49;3.00;;;1.80;;
3677;SDS011;1855;50.934;6.958;2023-04-24T08:44:18;2.70;;;1.90;;
3677;SDS011;1855;50.934;6.958;2023-04-24T08:46:46;2.92;;;2.20;;
3677;SDS011;1855;50.934;6.958;2023-04-24T08:49:15;3.88;;;2.60;;
3677;SDS011;1855;50.934;6.958;2023-04-24T08:51:42;3.55;;;2.83;;
3677;SDS011;1855;50.934;6.958;2023-04-24T08:54:09;3.60;;;2.55;;
3677;SDS011;1855;50.934;6.958;2023-04-24T08:56:37;4.15;;;2.63;;
3677;SDS011;1855;50.934;6.958;2023-04-24T08:59:06;3.60;;;3.30;;
3677;SDS011;1855;50.934;6.958;2023-04-24T09:01:33;3.63;;;3.33;;
3677;SDS011;1855;50.934;6.958;2023-04-24T09:04:04;5.50;;;3.58;;
3677;SDS011;1855;50.934;6.958;2023-04-24T09:06:36;4.18;;;3.78;;
3677;SDS011;1855;50.934;6.958;2023-04-24T09:09:03;5.00;;;4.60;;
3677;SDS011;1855;50.934;6.958;2023-04-24T09:11:30;5.30;;;4.80;;
3677;SDS011;1855;50.934;6.958;2023-04-24T09:13:57;5.93;;;4.78;;
3677;SDS011;1855;50.934;6.958;2023-04-24T09:16:25;5.50;;;5.00;;
3677;SDS011;1855;50.934;6.958;2023-04-24T09:18:52;6.30;;;5.70;;
3677;SDS011;1855;50.934;6.958;2023-04-24T09:21:20;7.63;;;5.80;;
3677;SDS011;1855;50.934;6.958;2023-04-24T09:23:49;8.00;;;7.20;;
3677;SDS011;1855;50.934;6.958;2023-04-24T09:26:24;8.73;;;7.25;;
3677;SDS011;1855;50.934;6.958;2023-04-24T09:28:51;9.40;;;7.30;;
3677;SDS011;1855;50.934;6.958;2023-04-24T09:31:19;9.25;;;7.43;;
3677;SDS011;1855;50.934;6.958;2023-04-24T09:33:53;8.77;;;8.00;;
3677;SDS011;1855;50.934;6.958;2023-04-24T09:36:26;9.60;;;8.70;;
3677;SDS011;1855;50.934;6.958;2023-04-24T09:38:57;9.60;;;8.70;;
3677;SDS011;1855;50.934;6.958;2023-04-24T09:41:24;9.13;;;7.90;;
3677;SDS011;1855;50.934;6.958;2023-04-24T09:43:53;9.90;;;8.95;;
3677;SDS011;1855;50.934;6.958;2023-04-24T09:46:20;10.70;;;9.38;;
3677;SDS011;1855;50.934;6.958;2023-04-24T09:48:47;10.32;;;9.32;;
3677;SDS011;1855;50.934;6.958;2023-04-24T09:51:14;10.48;;;9.52;;
3677;SDS011;1855;50.934;6.958;2023-04-24T09:53:44;11.55;;;10.20;;
3677;SDS011;1855;50.934;6.958;2023-04-24T09:56:13;11.90;;;10.70;;
3677;SDS011;1855;50.934;6.958;2023-04-24T09:58:40;13.20;;;11.37;;
3677;SDS011;1855;50.934;6.958;2023-04-24T10:01:07;12.30;;;11.10;;
3677;SDS011;1855;50.934;6.958;2023-04-24T10:03:33;12.63;;;11.32;;
3677;SDS011;1855;50.934;6.958;2023-04-24T10:06:00;11.90;;;10.60;;
3677;SDS011;1855;50.934;6.958;2023-04-24T10:08:32;11.32;;;10.18;;
3677;SDS011;1855;50.934;6.958;2023-04-24T10:11:00;11.02;;;10.00;;
3677;SDS011;1855;50.934;6.958;2023-04-24T10:13:28;11.23;;;10.10;;
3677;SDS011;1855;50.934;6.958;2023-04-24T10:15:56;10.90;;;9.80;;
3677;SDS011;1855;50.934;6.958;2023-04-24T10:18:26;10.93;;;9.10;;
3677;SDS011;1855;50.934;6.958;2023-04-24T10:20:53;10.40;;;9.40;;
3677;SDS011;1855;50.934;6.958;2023-04-24T10:23:21;11.25;;;9.98;;
3677;SDS011;1855;50.934;6.958;2023-04-24T10:25:48;10.00;;;8.98;;
3677;SDS011;1855;50.934;6.958;2023-04-24T10:28:16;7.82;;;6.70;;
3677;SDS011;1855;50.934;6.958;2023-04-24T10:30:46;8.50;;;7.60;;
3677;SDS011;1855;50.934;6.958;2023-04-24T10:33:14;8.77;;;7.30;;
3677;SDS011;1855;50.934;6.958;2023-04-24T10:35:44;9.40;;;6.05;;
3677;SDS011;1855;50.934;6.958;2023-04-24T10:38:14;8.75;;;6.30;;
3677;SDS011;1855;50.934;6.958;2023-04-24T10:40:44;7.60;;;6.57;;
3677;SDS011;1855;50.934;6.958;2023-04-24T10:43:11;7.38;;;5.90;;
3677;SDS011;1855;50.934;6.958;2023-04-24T10:45:44;7.07;;;5.90;;
3677;SDS011;1855;50.934;6.958;2023-04-24T10:48:28;8.77;;;5.60;;
3677;SDS011;1855;50.934;6.958;2023-04-24T10:50:55;6.45;;;5.20;;
3677;SDS011;1855;50.934;6.958;2023-04-24T10:53:23;7.63;;;5.97;;
3677;SDS011;1855;50.934;6.958;2023-04-24T10:55:52;7.40;;;5.25;;
3677;SDS011;1855;50.934;6.958;2023-04-24T10:58:24;6.05;;;5.00;;
3677;SDS011;1855;50.934;6.958;2023-04-24T11:01:04;6.20;;;4.93;;
3677;SDS011;1855;50.934;6.958;2023-04-24T11:03:32;7.03;;;4.57;;
3677;SDS011;1855;50.934;6.958;2023-04-24T11:06:01;6.53;;;5.82;;
3677;SDS011;1855;50.934;6.958;2023-04-24T11:08:29;7.05;;;5.00;;
3677;SDS011;1855;50.934;6.958;2023-04-24T11:10:58;5.90;;;4.47;;
3677;SDS011;1855;50.934;6.958;2023-04-24T11:13:27;6.70;;;5.03;;
3677;SDS011;1855;50.934;6.958;2023-04-24T11:16:27;6.20;;;4.82;;
3677;SDS011;1855;50.934;6.958;2023-04-24T11:18:59;7.60;;;5.18;;
3677;SDS011;1855;50.934;6.958;2023-04-24T11:21:31;5.90;;;4.90;;
3677;SDS011;1855;50.934;6.958;2023-04-24T11:23:58;7.25;;;5.22;;
3677;SDS011;1855;50.934;6.958;2023-04-24T11:26:45;6.43;;;5.35;;
3677;SDS011;1855;50.934;6.958;2023-04-24T11:29:11;6.32;;;5.00;;
3677;SDS011;1855;50.934;6.958;2023-04-24T11:31:40;5.72;;;5.13;;
3677;SDS011;1855;50.934;6.958;2023-04-24T11:34:07;6.78;;;4.60;;
3677;SDS011;1855;50.934;6.958;2023-04-24T11:36:35;6.80;;;4.70;;
3677;SDS011;1855;50.934;6.958;2023-04-24T11:39:02;5.30;;;4.68;;
3677;SDS011;1855;50.934;6.958;2023-04-24T11:41:29;5.90;;;4.82;;
3677;SDS011;1855;50.934;6.958;2023-04-24T11:43:56;8.13;;;5.15;;
3677;SDS011;1855;50.934;6.958;2023-04-24T11:46:26;7.53;;;5.00;;
3677;SDS011;1855;50.934;6.958;2023-04-24T11:48:55;5.70;;;5.05;;
3677;SDS011;1855;50.934;6.958;2023-04-24T11:51:22;6.57;;;5.28;;
3677;SDS011;1855;50.934;6.958;2023-04-24T11:53:50;6.07;;;5.45;;
3677;SDS011;1855;50.934;6.958;2023-04-24T11:56:17;6.38;;;4.38;;
3677;SDS011;1855;50.934;6.958;2023-04-24T11:58:44;5.47;;;4.18;;
3677;SDS011;1855;50.934;6.958;2023-04-24T12:01:11;5.20;;;3.80;;
3677;SDS011;1855;50.934;6.958;2023-04-24T12:03:38;4.18;;;3.78;;
3677;SDS011;1855;50.934;6.958;2023-04-24T12:06:10;4.40;;;4.00;;
3677;SDS011;1855;50.934;6.958;2023-04-24T12:08:37;5.03;;;4.10;;
3677;SDS011;1855;50.934;6.958;2023-04-24T12:11:04;5.15;;;3.67;;
3677;SDS011;1855;50.934;6.958;2023-04-24T12:13:33;4.60;;;4.10;;
3677;SDS011;1855;50.934;6.958;2023-04-24T12:16:01;5.20;;;4.60;;
3677;SDS011;1855;50.934;6.958;2023-04-24T12:18:29;6.90;;;4.80;;
3677;SDS011;1855;50.934;6.958;2023-04-24T12:21:03;6.68;;;4.60;;
3677;SDS011;1855;50.934;6.958;2023-04-24T12:23:42;6.63;;;4.40;;
3677;SDS011;1855;50.934;6.958;2023-04-24T12:26:09;5.55;;;5.05;;
3677;SDS011;1855;50.934;6.958;2023-04-24T12:28:36;5.55;;;4.70;;
3677;SDS011;1855;50.934;6.958;2023-04-24T12:31:04;7.15;;;4.65;;
3677;SDS011;1855;50.934;6.958;2023-04-24T12:33:33;5.75;;;5.25;;
3677;SDS011;1855;50.934;6.958;2023-04-24T12:36:00;6.03;;;5.43;;
3677;SDS011;1855;50.934;6.958;2023-04-24T12:38:29;7.13;;;4.88;;
3677;SDS011;1855;50.934;6.958;2023-04-24T12:41:02;6.25;;;4.78;;
3677;SDS011;1855;50.934;6.958;2023-04-24T12:43:30;5.95;;;4.70;;
3677;SDS011;1855;50.934;6.958;2023-04-24T12:45:57;5.75;;;4.50;;
3677;SDS011;1855;50.934;6.958;2023-04-24T12:48:24;8.88;;;5.20;;
3677;SDS011;1855;50.934;6.958;2023-04-24T12:50:51;5.15;;;4.28;;
3677;SDS011;1855;50.934;6.958;2023-04-24T12:53:18;8.43;;;4.80;;
3677;SDS011;1855;50.934;6.958;2023-04-24T12:55:46;7.15;;;4.60;;
3677;SDS011;1855;50.934;6.958;2023-04-24T12:58:17;9.05;;;6.28;;
3677;SDS011;1855;50.934;6.958;2023-04-24T13:00:45;7.55;;;5.15;;
3677;SDS011;1855;50.934;6.958;2023-04-24T13:03:12;8.07;;;6.50;;
3677;SDS011;1855;50.934;6.958;2023-04-24T13:05:38;9.90;;;5.18;;
3677;SDS011;1855;50.934;6.958;2023-04-24T13:08:05;5.93;;;4.80;;
3677;SDS011;1855;50.934;6.958;2023-04-24T13:10:32;6.95;;;5.50;;
3677;SDS011;1855;50.934;6.958;2023-04-24T13:13:00;9.40;;;5.90;;
3677;SDS011;1855;50.934;6.958;2023-04-24T13:15:27;6.80;;;5.20;;
3677;SDS011;1855;50.934;6.958;2023-04-24T13:17:54;6.85;;;4.63;;
3677;SDS011;1855;50.934;6.958;2023-04-24T13:20:20;7.93;;;5.85;;
3677;SDS011;1855;50.934;6.958;2023-04-24T13:22:47;8.07;;;5.28;;
3677;SDS011;1855;50.934;6.958;2023-04-24T13:25:14;6.68;;;5.25;;
3677;SDS011;1855;50.934;6.958;2023-04-24T13:27:42;7.85;;;4.90;;
3677;SDS011;1855;50.934;6.958;2023-04-24T13:30:10;5.60;;;5.10;;
3677;SDS011;1855;50.934;6.958;2023-04-24T13:32:38;7.57;;;5.30;;
3677;SDS011;1855;50.934;6.958;2023-04-24T13:35:04;5.35;;;4.85;;
3677;SDS011;1855;50.934;6.958;2023-04-24T13:37:31;7.00;;;5.00;;
3677;SDS011;1855;50.934;6.958;2023-04-24T13:39:58;6.13;;;4.93;;
3677;SDS011;1855;50.934;6.958;2023-04-24T13:42:25;5.82;;;4.50;;
3677;SDS011;1855;50.934;6.958;2023-04-24T13:44:52;5.60;;;4.60;;
3677;SDS011;1855;50.934;6.958;2023-04-24T13:47:20;5.88;;;4.40;;
3677;SDS011;1855;50.934;6.958;2023-04-24T13:49:48;8.23;;;4.60;;
3677;SDS011;1855;50.934;6.958;2023-04-24T13:52:15;8.10;;;4.90;;
3677;SDS011;1855;50.934;6.958;2023-04-24T13:54:42;6.80;;;5.17;;
3677;SDS011;1855;50.934;6.958;2023-04-24T13:57:09;6.18;;;4.53;;
3677;SDS011;1855;50.934;6.958;2023-04-24T13:59:35;7.88;;;5.18;;
3677;SDS011;1855;50.934;6.958;2023-04-24T14:02:03;6.07;;;4.45;;
3677;SDS011;1855;50.934;6.958;2023-04-24T14:04:31;5.53;;;4.40;;
3677;SDS011;1855;50.934;6.958;2023-04-24T14:06:57;6.65;;;4.72;;
3677;SDS011;1855;50.934;6.958;2023-04-24T14:09:24;6.65;;;4.60;;
3677;SDS011;1855;50.934;6.958;2023-04-24T14:11:51;8.63;;;4.60;;
3677;SDS011;1855;50.934;6.958;2023-04-24T14:14:18;6.78;;;4.68;;
3677;SDS011;1855;50.934;6.958;2023-04-24T14:16:45;4.72;;;3.70;;
3677;SDS011;1855;50.934;6.958;2023-04-24T14:19:11;7.75;;;4.05;;
3677;SDS011;1855;50.934;6.958;2023-04-24T14:21:39;6.80;;;4.00;;
3677;SDS011;1855;50.934;6.958;2023-04-24T14:24:07;4.53;;;3.25;;
3677;SDS011;1855;50.934;6.958;2023-04-24T14:26:34;5.68;;;3.40;;
3677;SDS011;1855;50.934;6.958;2023-04-24T14:29:01;4.43;;;3.95;;
3677;SDS011;1855;50.934;6.958;2023-04-24T14:31:28;6.65;;;4.00;;
3677;SDS011;1855;50.934;6.958;2023-04-24T14:33:54;5.10;;;4.00;;
3677;SDS011;1855;50.934;6.958;2023-04-24T14:36:22;6.18;;;3.80;;
3677;SDS011;1855;50.934;6.958;2023-04-24T14:38:50;5.03;;;3.30;;
3677;SDS011;1855;50.934;6.958;2023-04-24T14:41:17;4.15;;;2.90;;
3677;SDS011;1855;50.934;6.958;2023-04-24T14:43:44;4.40;;;3.55;;
3677;SDS011;1855;50.934;6.958;2023-04-24T14:46:10;3.70;;;3.40;;
3677;SDS011;1855;50.934;6.958;2023-04-24T14:48:37;3.53;;;3.20;;
3677;SDS011;1855;50.934;6.958;2023-04-24T14:51:04;3.92;;;3.53;;
3677;SDS011;1855;50.934;6.958;2023-04-24T14:53:30;5.68;;;4.03;;
3677;SDS011;1855;50.934;6.958;2023-04-24T14:55:58;4.95;;;3.97;;
3677;SDS011;1855;50.934;6.958;2023-04-24T14:58:25;4.80;;;4.13;;
3677;SDS011;1855;50.934;6.958;2023-04-24T15:00:52;5.22;;;3.80;;
3677;SDS011;1855;50.934;6.958;2023-04-24T15:03:19;3.70;;;3.10;;
3677;SDS011;1855;50.934;6.958;2023-04-24T15:05:46;3.42;;;3.00;;
3677;SDS011;1855;50.934;6.958;2023-04-24T15:08:13;4.15;;;3.20;;
3677;SDS011;1855;50.934;6.958;2023-04-24T15:10:40;4.35;;;3.13;;
3677;SDS011;1855;50.934;6.958;2023-04-24T15:13:08;3.60;;;2.80;;
3677;SDS011;1855;50.934;6.958;2023-04-24T15:15:35;4.30;;;3.03;;
3677;SDS011;1855;50.934;6.958;2023-04-24T15:18:02;4.20;;;3.25;;